Latest Weather Observations for Darwin Airport

IDD60901

Issued at 9:11 am CST Friday 27 March 2015 (issued every 10 minutes, with the page automatically refreshed every 10 minutes)

About weather observations | Map of Darwin area stations | Latest observations for Darwin area | Other Formats
Station Details ID: 014015 Name: DARWIN AIRPORT Lat: -12.42 Lon: 130.89 Height: 30.4 m
Data from the previous 72 hours. | See also: Recent months at Darwin Airport
Date/Time
CST
Tmp

°C
App
Tmp
°C
Dew
Point
°C
Rel
Hum
%
Delta-T

°C
Wind Press
QNH
hPa
Press
MSL
hPa
Rain
since
9 am
mm
Dir
 
Spd
km/h
Gust
km/h
Spd
kts
Gust
kts
27/09:00am 23.6 26.8 23.0 96 0.4 N 11 13 6 7 1015.8 1015.5 101.0
27/08:49am 23.4 27.0 23.0 98 0.3 NNE 9 15 5 8 1015.8 - 100.6
27/08:30am 23.3 26.4 22.9 98 0.3 ENE 11 15 6 8 1016.0 - 98.8
27/08:10am 23.1 26.5 22.0 93 0.7 W 7 9 4 5 1016.1 - 92.2
27/08:00am 23.2 26.2 22.0 93 0.8 W 9 13 5 7 1016.1 - 89.0
27/07:33am 24.2 28.2 23.8 98 0.3 NE 9 15 5 8 1015.7 - 83.2
27/07:30am 24.3 28.3 23.7 96 0.4 E 9 13 5 7 1015.6 - 81.0
27/07:28am 24.3 28.3 23.7 96 0.4 ESE 9 17 5 9 1015.3 - 80.2
27/07:12am 24.4 27.9 23.5 95 0.6 SE 11 15 6 8 1014.8 - 79.4
27/07:00am 24.4 28.2 23.5 95 0.6 SE 9 13 5 7 1014.6 - 79.2
27/06:30am 24.3 27.5 23.7 96 0.4 N 13 17 7 9 1014.1 - 78.8
27/06:00am 24.3 28.1 23.4 95 0.6 NE 9 13 5 7 1013.5 1013.2 78.8
27/05:30am 24.2 27.2 23.3 95 0.6 NNE 13 17 7 9 1013.3 - 78.8
27/05:00am 24.2 27.2 23.3 95 0.6 E 13 17 7 9 1013.0 - 78.8
27/04:30am 24.2 26.4 23.3 95 0.6 E 17 24 9 13 1012.3 - 78.8
27/04:00am 24.3 24.9 23.4 95 0.6 E 26 33 14 18 1012.9 - 78.6
27/03:52am 24.3 24.2 23.6 96 0.5 E 30 37 16 20 1012.8 - 78.6
27/03:30am 24.3 23.7 23.4 95 0.6 ENE 32 41 17 22 1012.9 - 73.8
27/03:24am 24.4 23.6 23.4 94 0.7 ENE 33 41 18 22 1012.9 - 71.8
27/03:19am 24.6 26.1 23.0 91 1.1 E 20 28 11 15 1012.8 - 71.0
27/03:00am 25.4 28.5 24.2 93 0.8 E 15 17 8 9 1012.7 1012.4 71.0
27/02:30am 25.3 28.3 24.0 92 0.9 E 15 17 8 9 1012.6 - 71.0
27/02:00am 25.6 27.9 23.4 88 1.5 ENE 17 20 9 11 1013.1 - 71.0
27/01:30am 26.0 28.5 24.4 91 1.1 ENE 19 22 10 12 1012.9 - 71.0
27/01:00am 26.0 29.7 25.1 95 0.6 NE 15 19 8 10 1013.4 - 71.0
27/12:30am 26.2 29.9 25.1 94 0.8 NE 15 20 8 11 1013.6 - 71.0
 
Date/Time
CST
Tmp

°C
App
Tmp
°C
Dew
Point
°C
Rel
Hum
%
Delta-T

°C
Wind Press
QNH
hPa
Press
MSL
hPa
Rain
since
9 am
mm
Dir
 
Spd
km/h
Gust
km/h
Spd
kts
Gust
kts
26/11:30pm 26.5 29.2 24.8 90 1.2 NNE 19 26 10 14 1013.6 - 71.0
26/11:00pm 26.5 29.7 24.9 91 1.1 NNE 17 22 9 12 1013.8 - 71.0
26/10:30pm 26.4 29.9 24.8 91 1.1 NNE 15 19 8 10 1013.5 - 71.0
26/10:00pm 25.6 29.5 24.9 96 0.5 NNE 13 19 7 10 1013.5 - 71.0
26/09:30pm 25.0 29.9 24.6 98 0.3 E 7 9 4 5 1013.5 - 71.0
26/09:00pm 24.7 29.3 24.1 96 0.4 ENE 7 9 4 5 1013.3 1013.0 71.0
26/08:30pm 24.8 28.8 23.8 94 0.7 ENE 9 13 5 7 1012.7 - 71.0
26/08:00pm 24.6 27.9 24.5 99 0.1 NE 15 19 8 10 1012.4 - 70.4
26/07:30pm 24.8 27.5 24.7 99 0.1 NE 19 24 10 13 1012.1 - 70.2
26/07:18pm 24.3 25.8 24.3 100 0.0 ENE 24 30 13 16 1012.3 - 69.2
26/07:00pm 24.6 26.6 24.6 100 0.0 NE 22 33 12 18 1012.4 - 66.4
26/06:46pm 24.6 26.3 24.6 100 0.0 NE 24 39 13 21 1012.3 - 64.0
26/06:34pm 25.1 28.7 25.0 99 0.1 E 15 17 8 9 1011.9 - 61.2
26/06:30pm 25.0 29.0 25.0 100 0.0 E 13 17 7 9 1011.9 - 61.2
26/06:00pm 24.5 27.0 24.5 100 0.0 E 19 22 10 12 1011.4 1011.1 57.6
26/05:40pm 24.7 26.6 24.4 98 0.2 N 22 39 12 21 1011.3 - 29.2
26/05:35pm 25.5 27.7 24.9 96 0.4 N 22 35 12 19 1010.8 - 20.2
26/05:30pm 25.4 27.0 24.5 95 0.6 N 24 35 13 19 1010.8 - 19.4
26/05:25pm 25.5 26.3 24.5 94 0.7 NNW 28 37 15 20 1010.7 - 18.8
26/05:00pm 26.2 29.7 25.5 96 0.5 NE 17 22 9 12 1010.2 - 18.6
26/04:30pm 25.6 28.6 25.2 98 0.3 NNE 19 22 10 12 1010.2 - 18.6
26/04:00pm 25.6 27.7 25.3 98 0.2 NNE 24 46 13 25 1010.8 - 12.0
26/03:50pm 26.9 29.9 25.6 93 0.9 N 20 26 11 14 1010.2 - 0.8
26/03:30pm 29.1 30.1 24.1 74 3.5 N 26 32 14 17 1010.0 - 0.0
26/03:00pm 29.9 29.9 23.1 67 4.7 NNE 28 39 15 21 1009.7 1009.4 0.0
26/02:30pm 31.7 32.8 23.6 62 5.6 NNE 24 35 13 19 1009.9 - 0.0
26/02:00pm 32.0 32.2 23.5 60 5.9 NNE 28 39 15 21 1010.4 - 0.0
26/01:30pm 28.9 31.6 25.1 80 2.7 NE 20 32 11 17 1010.7 - 0.0
26/01:00pm 30.8 30.8 22.4 61 5.7 NNE 26 33 14 18 1011.0 - 0.0
26/12:30pm 31.8 33.2 23.6 62 5.7 NNE 22 30 12 16 1011.6 - 0.0
26/12:00pm 31.4 31.6 22.8 60 5.9 NNE 26 35 14 19 1012.0 1011.7 0.0
26/11:30am 31.2 32.4 23.9 65 5.1 NNE 24 37 13 20 1012.3 - 0.0
26/11:00am 30.6 31.1 24.0 68 4.6 N 28 39 15 21 1012.6 - 0.0
26/10:30am 29.8 30.0 23.4 68 4.4 NNE 28 41 15 22 1012.7 - 0.0
26/10:00am 29.5 30.2 23.7 71 4.0 NNE 26 32 14 17 1012.7 - 0.0
26/09:30am 29.0 29.8 23.8 73 3.6 NNE 26 33 14 18 1012.6 - 0.0
26/09:00am 28.6 31.4 24.9 80 2.6 NE 19 28 10 15 1012.1 1011.8 1.4
26/08:30am 27.7 30.7 24.7 84 2.1 NE 17 22 9 12 1011.9 - 1.4
26/08:00am 26.9 30.6 24.6 87 1.6 NE 13 17 7 9 1011.8 - 1.4
26/07:30am 25.5 28.9 24.0 91 1.0 ENE 13 17 7 9 1011.5 - 1.4
26/07:00am 24.8 27.7 23.8 94 0.7 ENE 15 17 8 9 1011.2 - 1.4
26/06:30am 24.7 28.0 23.8 95 0.6 E 13 15 7 8 1010.9 - 1.4
26/06:00am 25.0 28.8 24.1 95 0.6 E 11 15 6 8 1010.6 1010.3 1.4
26/05:30am 25.3 29.4 24.6 96 0.5 E 11 13 6 7 1010.5 - 1.4
26/05:00am 25.3 29.4 24.6 96 0.5 ESE 11 11 6 6 1010.2 - 1.0
26/04:30am 25.0 29.8 24.4 96 0.4 ENE 7 9 4 5 1009.7 - 1.0
26/04:00am 25.0 29.6 24.1 95 0.6 NNE 7 9 4 5 1009.7 - 1.0
26/03:30am 24.9 29.4 24.0 95 0.6 N 7 7 4 4 1009.6 - 0.8
26/03:00am 25.0 29.1 24.0 94 0.7 N 9 11 5 6 1009.9 1009.6 0.8
26/02:30am 25.4 29.1 24.5 95 0.6 N 13 15 7 8 1010.3 - 0.8
26/02:00am 25.1 28.9 24.1 94 0.7 NNW 11 15 6 8 1010.4 - 0.8
26/01:35am 25.4 28.2 23.0 86 1.6 N 13 19 7 10 1010.7 - 0.8
26/01:30am 26.2 28.4 24.3 89 1.3 N 20 24 11 13 1010.7 - 0.0
26/01:00am 26.7 30.9 24.1 86 1.8 NNW 9 11 5 6 1010.9 - 0.0
26/12:30am 27.2 30.3 23.6 81 2.5 WNW 13 17 7 9 1011.2 - 0.0
26/12:00am 27.4 30.3 23.9 81 2.4 WNW 15 17 8 9 1011.2 1010.9 0.0
 
Date/Time
CST
Tmp

°C
App
Tmp
°C
Dew
Point
°C
Rel
Hum
%
Delta-T

°C
Wind Press
QNH
hPa
Press
MSL
hPa
Rain
since
9 am
mm
Dir
 
Spd
km/h
Gust
km/h
Spd
kts
Gust
kts
25/11:30pm 27.6 30.0 22.9 75 3.2 N 15 17 8 9 1011.3 - 0.0
25/11:00pm 27.8 30.6 23.0 75 3.3 NNW 13 17 7 9 1011.3 - 0.0
25/10:30pm 27.9 30.8 23.2 75 3.2 NNW 13 15 7 8 1011.1 - 0.0
25/10:00pm 28.1 31.1 23.3 75 3.3 NW 13 17 7 9 1010.9 - 0.0
25/09:30pm 28.0 31.0 23.3 75 3.2 NNW 13 15 7 8 1010.7 - 0.0
25/09:00pm 27.9 31.5 23.7 78 2.9 NW 11 13 6 7 1010.7 1010.4 0.0
25/08:30pm 27.6 31.6 23.8 80 2.6 NW 9 11 5 6 1010.4 - 0.0
25/08:00pm 27.8 31.2 23.4 77 3.0 NW 11 15 6 8 1010.2 - 0.0
25/07:30pm 27.9 31.3 23.4 76 3.1 NW 11 13 6 7 1010.0 - 0.0
25/07:00pm 28.1 30.7 23.3 75 3.3 WNW 15 19 8 10 1009.5 - 0.0
25/06:30pm 28.3 29.8 22.7 71 3.8 NW 19 22 10 12 1009.1 - 0.0
25/06:00pm 28.7 30.0 22.4 68 4.3 NW 19 26 10 14 1008.8 1008.5 0.0
25/05:30pm 29.0 30.3 22.7 69 4.3 WNW 20 26 11 14 1008.5 - 0.0
25/05:00pm 29.1 29.6 22.6 68 4.4 WNW 24 28 13 15 1008.1 - 0.0
25/04:30pm 29.7 30.8 23.0 67 4.6 WNW 22 30 12 16 1007.9 - 0.0
25/04:00pm 29.1 30.2 23.1 70 4.1 NW 22 30 12 16 1007.6 - 0.0
25/03:30pm 30.1 30.9 22.5 63 5.2 NW 22 30 12 16 1007.6 - 0.0
25/03:00pm 29.6 30.3 22.2 64 5.0 NW 22 32 12 17 1007.7 1007.4 0.0
25/02:30pm 29.3 30.7 22.9 68 4.4 NW 20 28 11 15 1008.0 - 0.0
25/02:00pm 29.2 30.5 22.4 66 4.6 WNW 19 26 10 14 1008.4 - 0.0
25/01:30pm 29.1 30.6 22.0 65 4.8 NW 17 22 9 12 1008.7 - 0.0
25/01:00pm 29.4 31.1 22.3 65 4.8 WNW 17 20 9 11 1009.1 - 0.0
25/12:30pm 28.5 30.2 22.3 69 4.2 WNW 17 24 9 13 1009.6 - 0.0
25/12:00pm 28.0 30.4 22.2 70 3.9 WNW 13 19 7 10 1009.8 1009.5 0.0
25/11:30am 27.0 30.0 22.6 77 3.0 W 11 15 6 8 1010.3 - 0.0
25/11:00am 25.8 29.1 22.5 82 2.2 WSW 9 11 5 6 1010.5 - 0.0
25/10:30am 25.1 28.2 22.9 87 1.5 WSW 11 13 6 7 1010.7 - 0.0
25/10:00am 25.7 28.0 22.1 80 2.4 SW 13 17 7 9 1010.5 - 0.0
25/09:30am 25.7 28.4 22.1 80 2.4 SW 11 13 6 7 1010.4 - 0.0
25/09:00am 25.5 27.9 22.2 82 2.2 SW 13 17 7 9 1010.3 1010.0 0.8
25/08:30am 25.2 27.6 22.2 83 2.0 WSW 13 17 7 9 1010.1 - 0.8
25/08:00am 24.8 26.2 21.8 83 2.0 SSW 17 20 9 11 1009.8 - 0.8
25/07:46am 24.9 27.7 21.6 82 2.2 SSW 9 15 5 8 1009.6 - 0.8
25/07:30am 24.3 26.4 21.7 85 1.7 SSW 13 20 7 11 1009.6 - 0.8
25/07:28am 24.2 26.2 21.6 85 1.7 SSW 13 20 7 11 1009.6 - 0.8
25/07:21am 24.6 26.3 21.6 83 2.0 SSW 15 20 8 11 1009.5 - 0.8
25/07:19am 24.7 26.7 21.5 82 2.1 S 13 20 7 11 1009.4 - 0.8
25/07:00am 24.7 26.5 21.2 81 2.3 SSW 13 19 7 10 1009.3 - 0.8
25/06:30am 24.8 26.5 21.0 79 2.5 SSW 13 15 7 8 1008.9 - 0.8
25/06:00am 24.9 26.5 20.8 78 2.7 SW 13 20 7 11 1008.6 1008.3 0.8
25/05:30am 25.0 26.5 20.6 76 2.9 WSW 13 19 7 10 1008.3 - 0.8
25/05:00am 25.1 26.2 20.4 75 3.1 WSW 15 20 8 11 1008.0 - 0.8
25/04:30am 25.2 26.4 19.8 72 3.5 SW 13 17 7 9 1008.0 - 0.8
25/04:00am 25.2 25.9 19.6 71 3.6 SSW 15 20 8 11 1008.0 - 0.8
25/03:30am 25.5 25.4 19.5 69 3.9 S 19 28 10 15 1008.0 - 0.8
25/03:00am 25.1 24.8 19.5 71 3.6 S 20 30 11 16 1008.1 1007.8 0.8
25/02:30am 25.3 24.5 19.2 69 3.9 S 22 32 12 17 1008.5 - 0.8
25/02:00am 25.2 24.2 19.6 71 3.6 S 24 35 13 19 1009.0 - 0.8
25/01:30am 25.6 24.9 19.6 69 3.9 S 22 32 12 17 1008.9 - 0.8
25/01:00am 25.8 25.4 19.3 67 4.2 S 20 32 11 17 1009.3 - 0.8
25/12:30am 25.7 24.1 19.2 67 4.2 S 26 33 14 18 1010.0 - 0.8
25/12:00am 25.8 23.8 20.0 70 3.8 S 30 41 16 22 1010.2 1009.9 0.8
 
Date/Time
CST
Tmp

°C
App
Tmp
°C
Dew
Point
°C
Rel
Hum
%
Delta-T

°C
Wind Press
QNH
hPa
Press
MSL
hPa
Rain
since
9 am
mm
Dir
 
Spd
km/h
Gust
km/h
Spd
kts
Gust
kts
24/11:30pm 25.8 24.6 20.8 74 3.3 S 28 46 15 25 1010.3 - 0.8
24/11:00pm 26.1 24.5 20.8 72 3.5 S 30 41 16 22 1010.3 - 0.8
24/10:30pm 26.1 25.5 20.6 71 3.6 S 24 32 13 17 1010.4 - 0.8
24/10:00pm 25.8 24.6 20.8 74 3.3 S 28 39 15 21 1010.5 - 0.8
24/09:30pm 25.9 24.6 20.6 72 3.5 S 28 39 15 21 1010.4 - 0.8
24/09:00pm 25.6 24.9 21.1 76 3.0 S 26 39 14 21 1010.3 1010.0 0.8
24/08:30pm 25.0 25.7 21.5 81 2.3 S 20 30 11 16 1010.0 - 0.8
24/08:00pm 24.1 24.2 21.8 87 1.5 SE 24 33 13 18 1009.4 - 0.8
24/07:30pm 25.0 24.5 21.5 81 2.3 ESE 26 35 14 19 1009.2 - 0.8
24/07:00pm 26.3 25.8 20.8 71 3.6 SE 24 32 13 17 1008.6 - 0.8
24/06:30pm 28.1 28.6 20.9 65 4.8 S 19 22 10 12 1007.7 - 0.8
24/06:00pm 28.6 27.9 20.3 60 5.5 SSW 24 33 13 18 1007.0 1006.7 0.8
24/05:30pm 27.5 28.9 21.0 67 4.3 W 15 19 8 10 1007.1 - 0.8
24/05:00pm 27.7 28.3 21.1 67 4.4 W 19 24 10 13 1007.1 - 0.8
24/04:30pm 27.5 29.4 22.8 75 3.2 W 17 20 9 11 1007.3 - 0.8
24/04:00pm 25.6 28.3 22.9 85 1.8 W 13 17 7 9 1007.3 - 0.8
24/03:36pm 24.6 26.2 22.8 90 1.2 SSE 19 28 10 15 1008.0 - 0.6
24/03:28pm 24.6 24.6 23.0 91 1.1 ESE 28 48 15 26 1008.5 - 0.6
24/03:25pm 25.6 26.6 22.2 81 2.3 ESE 20 37 11 20 1008.6 - 0.0
24/03:23pm 27.1 28.9 21.1 69 4.0 SE 13 17 7 9 1008.2 - 0.0
24/03:00pm 28.3 29.3 19.4 58 5.8 ESE 13 19 7 10 1008.1 1007.8 0.0
24/02:30pm 28.2 26.6 20.1 61 5.3 E 28 35 15 19 1008.2 - 0.0
24/02:00pm 29.2 26.3 18.8 53 6.7 ESE 32 44 17 24 1008.3 - 0.0
24/01:30pm 30.6 26.7 17.0 44 8.6 SE 33 44 18 24 1008.3 - 0.0
24/01:00pm 30.6 28.4 17.0 44 8.6 SE 24 28 13 15 1008.6 - 0.0
24/12:30pm 31.0 28.7 17.5 44 8.6 SE 26 37 14 20 1008.9 - 0.0
24/12:00pm 31.1 27.2 16.5 41 9.2 SSE 32 43 17 23 1009.3 1009.0 0.0
24/11:30am 30.3 28.8 16.8 44 8.5 SE 20 28 11 15 1009.7 - 0.0
24/11:00am 30.3 28.5 17.0 44 8.4 SE 22 30 12 16 1010.4 - 0.0
24/10:30am 29.9 27.5 16.5 44 8.4 SSE 24 32 13 17 1010.7 - 0.0
24/10:00am 30.1 27.7 16.3 43 8.6 SSE 24 32 13 17 1010.9 - 0.0
24/09:30am 29.4 28.3 17.8 49 7.4 SSE 20 30 11 16 1010.6 - 0.0

Latest Capital City Observations: Canberra | Sydney | Melbourne | Brisbane | Adelaide | Perth | Hobart | Darwin

Other Formats:

Comma delimited format used in spreadsheet applications
http://www.bom.gov.au/fwo/IDD60901/IDD60901.94120.axf

JavaScript Object Notation format (JSON) in row-major order
http://www.bom.gov.au/fwo/IDD60901/IDD60901.94120.json